Airfield :
LOGIN :

Register | Disclaimer

   EN    FR    IT 

 










Legend :    VFR   Marginal VFR   IFR   Intensive IFR   Very Intensive IFR
Visi :
Ceiling :
>= 8 km
>= 3000ft
5 to 8 km
1000 to 3000 ft
1500m to 5 km
500 to 1000 ft
800 to 1500m
200 to 500 ft
< 800m
< 200 ft
Symbols :   Thunderstorms  Fog  Heavy snow  Heavy precipitations  Wind > 20 kt
SIGMETs :     Misc.  Thunderstorms  Icing  Turbulence  Mountain Waves  Volcanic Ashes






- Airport Elevation : 297 ft


EGVP - Middle Wallop

CURRENT METAR :
  • 161020Z 05008KT 9999 FEW028 08/00 Q1031 NOSIG RMK BLU BLU

EXPIRED METARs :
  • 160950Z AUTO 03009KT 9999 BKN018/// 07/01 Q1031
  • 160920Z 04007KT 9999 FEW017 07/02 Q1031 NOSIG RMK BLU BLU
  • 160850Z 06009KT 9999 FEW014 06/02 Q1031 TEMPO SCT014 RMK BLU TEMPO GRN
  • 160826Z 04008KT 9999 SCT013 06/02 Q1031 BECMG SCT025 RMK GRN BECMG BLU
  • 160750Z 05007KT 9999 FEW012 05/02 Q1031 NOSIG RMK BLU BLU

TAF AMD TAF EGVP
Valid from the 16 at 09:00 until the 16 at 18:00 UTC


160843Z 1609/1618 05007KT 9999 SCT025
TEMPO 1609/1610 SCT014
ATIS : +44 1980 674 142



MET'MAP, your aeronautical weather chart ! - Copyright ORBIFLY December 2007 - Disclaimer

ORBIFLY MET'MAP TEAM :

Programming & Development : Alexandra Zaïnal
Concept & original design : Baudouin d'Aumeries
Assistance for programming : Marc-Olivier Méhu
Technical & hardware support : Manuel Goepfert

Contact : metmap@orbifly.com




SOURCES & CREDITS :

   NOAA